createdAt,value
2023-02-16T00:00:17.432Z,5.15
2023-02-16T00:02:44.074Z,5.60
2023-02-16T00:05:33.411Z,5.78
2023-02-16T00:08:00.539Z,6.15
2023-02-16T00:10:29.532Z,5.63
2023-02-16T00:13:14.653Z,5.68
2023-02-16T00:15:41.138Z,6.27
2023-02-16T00:18:18.313Z,6.30
2023-02-16T00:20:44.889Z,6.03
2023-02-16T00:23:11.267Z,6.13
2023-02-16T00:25:37.894Z,6.18
2023-02-16T00:28:05.902Z,6.03
2023-02-16T00:30:33.140Z,6.93
2023-02-16T00:32:59.538Z,6.53
2023-02-16T00:35:25.915Z,6.68
2023-02-16T00:37:52.420Z,6.28
2023-02-16T00:40:18.810Z,6.38
2023-02-16T00:42:46.432Z,7.07
2023-02-16T00:45:20.150Z,7.03
2023-02-16T00:47:47.978Z,7.15
2023-02-16T00:50:24.487Z,7.38
2023-02-16T00:52:51.010Z,7.38
2023-02-16T00:55:25.213Z,7.30
2023-02-16T00:58:10.506Z,8.05
2023-02-16T01:00:41.835Z,7.07
2023-02-16T01:03:18.659Z,7.60
2023-02-16T01:05:45.548Z,7.30
2023-02-16T01:08:32.478Z,7.93
2023-02-16T01:11:10.256Z,7.75
2023-02-16T01:13:41.345Z,7.72
2023-02-16T01:16:15.813Z,8.10
2023-02-16T01:18:42.225Z,7.47
2023-02-16T01:21:09.088Z,8.15
2023-02-16T01:23:36.385Z,7.75
2023-02-16T01:26:02.891Z,7.40
2023-02-16T01:28:29.545Z,7.45
2023-02-16T01:30:56.089Z,7.68
2023-02-16T01:33:22.645Z,7.70
2023-02-16T01:35:49.819Z,7.70
2023-02-16T01:38:18.725Z,7.68
2023-02-16T01:40:49.156Z,8.20
2023-02-16T01:43:23.274Z,7.72
2023-02-16T01:46:00.504Z,8.52
2023-02-16T01:48:30.763Z,7.88
2023-02-16T01:51:15.911Z,8.25
2023-02-16T01:53:54.562Z,8.37
2023-02-16T01:56:42.636Z,9.25
2023-02-16T01:59:15.699Z,7.82
2023-02-16T02:01:44.277Z,8.88
2023-02-16T02:04:41.152Z,8.50
2023-02-16T02:07:08.391Z,8.88
2023-02-16T02:09:41.935Z,9.00
2023-02-16T02:12:13.927Z,8.93
2023-02-16T02:14:40.547Z,9.13
2023-02-16T02:17:09.716Z,9.05
2023-02-16T02:19:45.639Z,9.18
2023-02-16T02:22:36.697Z,9.57
2023-02-16T02:25:15.131Z,10.02
2023-02-16T02:27:46.009Z,10.73
2023-02-16T02:30:31.158Z,10.98
2023-02-16T02:32:57.560Z,10.93
2023-02-16T02:35:32.547Z,10.23
2023-02-16T02:38:12.250Z,11.38
2023-02-16T02:40:50.134Z,10.50
2023-02-16T02:43:35.180Z,10.75
2023-02-16T02:46:07.907Z,9.97
2023-02-16T02:48:35.368Z,11.25
2023-02-16T02:51:20.368Z,11.77
2023-02-16T02:54:11.159Z,11.32
2023-02-16T02:56:56.806Z,11.65
2023-02-16T02:59:42.393Z,11.07
2023-02-16T03:02:09.114Z,12.25
2023-02-16T03:04:35.756Z,11.75
2023-02-16T03:07:03.123Z,12.32
2023-02-16T03:09:30.098Z,12.32
2023-02-16T03:12:16.123Z,12.00
2023-02-16T03:14:45.730Z,11.57
2023-02-16T03:17:32.610Z,12.30
2023-02-16T03:20:18.777Z,11.77
2023-02-16T03:23:04.369Z,12.00
2023-02-16T03:25:51.756Z,11.57
2023-02-16T03:28:38.198Z,12.15
2023-02-16T03:31:06.359Z,11.85
2023-02-16T03:33:33.012Z,11.73
2023-02-16T03:35:59.491Z,12.23
2023-02-16T03:38:26.339Z,12.43
2023-02-16T03:40:52.947Z,12.32
2023-02-16T03:43:19.324Z,12.80
2023-02-16T03:45:45.864Z,11.60
2023-02-16T03:48:12.685Z,11.88
2023-02-16T03:50:39.023Z,11.80
2023-02-16T03:53:08.666Z,12.45
2023-02-16T03:55:46.230Z,12.63
2023-02-16T03:58:14.574Z,12.43
2023-02-16T04:00:41.065Z,11.40
2023-02-16T04:03:08.857Z,12.68
2023-02-16T04:05:35.253Z,12.95
2023-02-16T04:08:01.615Z,11.57
2023-02-16T04:10:28.100Z,12.07
2023-02-16T04:12:54.479Z,11.82
2023-02-16T04:15:22.241Z,11.80
2023-02-16T04:17:48.861Z,11.57
2023-02-16T04:20:17.437Z,12.23
2023-02-16T04:22:44.085Z,12.30
2023-02-16T04:25:10.912Z,12.57
2023-02-16T04:27:40.090Z,12.43
2023-02-16T04:30:07.461Z,11.98
2023-02-16T04:32:33.857Z,13.55
2023-02-16T04:35:00.233Z,12.23
2023-02-16T04:37:26.616Z,11.95
2023-02-16T04:39:52.984Z,12.40
2023-02-16T04:42:19.350Z,12.68
2023-02-16T04:44:45.738Z,12.60
2023-02-16T04:47:12.187Z,13.25
2023-02-16T04:49:38.534Z,13.23
2023-02-16T04:52:05.405Z,12.45
2023-02-16T04:54:32.560Z,15.45
2023-02-16T04:56:59.223Z,13.93
2023-02-16T04:59:26.008Z,15.02
2023-02-16T05:01:53.332Z,14.15
2023-02-16T05:04:19.809Z,15.10
2023-02-16T05:06:46.204Z,15.05
2023-02-16T05:09:12.708Z,14.55
2023-02-16T05:11:57.496Z,14.90
2023-02-16T05:14:47.016Z,13.98
2023-02-16T05:17:13.317Z,13.65
2023-02-16T05:19:40.931Z,14.57
2023-02-16T05:22:07.997Z,14.82
2023-02-16T05:24:34.826Z,13.68
2023-02-16T05:27:02.040Z,14.77
2023-02-16T05:29:28.516Z,14.95
2023-02-16T05:31:55.123Z,15.27
2023-02-16T05:34:21.489Z,15.02
2023-02-16T05:36:47.952Z,14.85
2023-02-16T05:39:14.640Z,15.52
2023-02-16T05:41:41.080Z,14.73
2023-02-16T05:44:08.063Z,14.32
2023-02-16T05:46:36.174Z,13.68
2023-02-16T05:49:03.032Z,15.52
2023-02-16T05:51:29.427Z,14.32
2023-02-16T05:53:56.039Z,13.95
2023-02-16T05:56:22.596Z,13.43
2023-02-16T05:58:49.072Z,14.85
2023-02-16T06:01:15.876Z,14.73
2023-02-16T06:03:42.518Z,13.88
2023-02-16T06:06:09.752Z,14.07
2023-02-16T06:08:36.732Z,14.70
2023-02-16T06:11:03.482Z,14.63
2023-02-16T06:13:29.979Z,14.15
2023-02-16T06:15:57.368Z,14.90
2023-02-16T06:18:24.603Z,14.85
2023-02-16T06:20:51.131Z,14.20
2023-02-16T06:23:17.573Z,14.05
2023-02-16T06:25:44.700Z,14.27
2023-02-16T06:28:12.260Z,14.13
2023-02-16T06:30:38.624Z,13.77
2023-02-16T06:33:05.143Z,14.20
2023-02-16T06:35:31.499Z,13.73
2023-02-16T06:37:59.179Z,14.95
2023-02-16T06:40:26.001Z,14.75
2023-02-16T06:42:52.444Z,13.77
2023-02-16T06:45:19.288Z,14.27
2023-02-16T06:47:45.742Z,16.02
2023-02-16T06:50:14.439Z,15.43
2023-02-16T06:52:40.909Z,16.45
2023-02-16T06:55:07.515Z,16.55
2023-02-16T06:57:34.059Z,16.92
2023-02-16T07:00:00.425Z,17.10
2023-02-16T07:02:26.839Z,18.33
2023-02-16T07:04:54.458Z,17.90
2023-02-16T07:07:23.973Z,19.30
2023-02-16T07:09:50.579Z,18.65
2023-02-16T07:12:16.937Z,18.98
2023-02-16T07:14:44.316Z,19.85
2023-02-16T07:17:10.778Z,19.45
2023-02-16T07:19:37.246Z,19.20
2023-02-16T07:22:03.967Z,18.27
2023-02-16T07:24:30.347Z,17.67
2023-02-16T07:26:56.735Z,18.05
2023-02-16T07:29:23.461Z,16.85
2023-02-16T07:31:50.936Z,17.40
2023-02-16T07:34:17.452Z,16.60
2023-02-16T07:36:45.152Z,17.30
2023-02-16T07:39:12.077Z,17.40
2023-02-16T07:41:38.495Z,17.13
2023-02-16T07:44:05.006Z,16.65
2023-02-16T07:46:33.302Z,15.65
2023-02-16T07:48:59.891Z,13.80
2023-02-16T07:51:27.383Z,12.95
2023-02-16T07:53:53.824Z,13.20
2023-02-16T07:56:21.437Z,12.50
2023-02-16T07:58:47.984Z,12.15
2023-02-16T08:01:15.933Z,12.02
2023-02-16T08:03:42.551Z,11.90
2023-02-16T08:06:09.189Z,11.70
2023-02-16T08:08:36.168Z,11.40
2023-02-16T08:11:09.835Z,10.60
2023-02-16T08:13:36.316Z,11.07
2023-02-16T08:16:02.900Z,11.13
2023-02-16T08:18:30.376Z,10.90
2023-02-16T08:21:04.321Z,11.70
2023-02-16T08:23:31.442Z,9.90
2023-02-16T08:25:59.244Z,10.70
2023-02-16T08:28:28.727Z,10.88
2023-02-16T08:30:55.429Z,10.93
2023-02-16T08:33:21.898Z,10.60
2023-02-16T08:35:48.511Z,10.85
2023-02-16T08:38:17.306Z,10.25
2023-02-16T08:40:49.097Z,10.30
2023-02-16T08:43:15.526Z,11.07
2023-02-16T08:45:48.589Z,11.13
2023-02-16T08:48:15.281Z,10.98
2023-02-16T08:50:47.113Z,10.90
2023-02-16T08:53:14.206Z,10.68
2023-02-16T08:55:40.636Z,10.95
2023-02-16T08:58:07.132Z,10.43
2023-02-16T09:00:37.746Z,11.25
2023-02-16T09:03:04.391Z,11.50
2023-02-16T09:05:31.514Z,10.65
2023-02-16T09:07:58.562Z,11.43
2023-02-16T09:10:25.070Z,11.32
2023-02-16T09:12:51.448Z,12.10
2023-02-16T09:15:18.006Z,11.77
2023-02-16T09:17:44.983Z,11.52
2023-02-16T09:20:12.276Z,11.73
2023-02-16T09:22:39.120Z,11.30
2023-02-16T09:25:07.687Z,12.20
2023-02-16T09:27:34.739Z,11.32
2023-02-16T09:30:01.115Z,11.75
2023-02-16T09:32:30.665Z,12.48
2023-02-16T09:34:57.032Z,11.27
2023-02-16T09:37:26.152Z,11.13
2023-02-16T09:39:52.515Z,11.95
2023-02-16T09:42:28.552Z,11.27
2023-02-16T09:45:04.245Z,11.25
2023-02-16T09:49:59.303Z,12.02
2023-02-16T09:52:28.478Z,12.20
2023-02-16T09:54:56.164Z,12.00
2023-02-16T09:57:27.428Z,13.02
2023-02-16T10:00:13.013Z,12.98
2023-02-16T10:02:39.490Z,12.60
2023-02-16T10:05:20.986Z,12.18
2023-02-16T10:08:05.738Z,12.05
2023-02-16T10:10:40.283Z,11.82
2023-02-16T10:13:11.511Z,11.75
2023-02-16T10:15:38.170Z,12.73
2023-02-16T10:18:24.941Z,11.68
2023-02-16T10:20:52.716Z,12.65
2023-02-16T10:23:38.088Z,12.30
2023-02-16T10:26:12.428Z,11.60
2023-02-16T10:28:47.679Z,11.43
2023-02-16T10:31:34.210Z,12.10
2023-02-16T10:34:03.970Z,11.23
2023-02-16T10:36:49.952Z,11.88
2023-02-16T10:39:18.857Z,12.35
2023-02-16T10:41:46.961Z,11.02
2023-02-16T10:44:14.896Z,11.90
2023-02-16T10:46:43.920Z,11.52
2023-02-16T10:49:14.364Z,11.70
2023-02-16T10:51:42.660Z,11.27
2023-02-16T10:54:15.192Z,11.60
2023-02-16T10:56:41.620Z,11.88
2023-02-16T10:59:13.588Z,11.63
2023-02-16T11:01:43.321Z,11.98
2023-02-16T11:04:29.215Z,11.32
2023-02-16T11:07:24.863Z,10.52
2023-02-16T11:09:55.605Z,10.82
2023-02-16T11:12:27.193Z,10.90
2023-02-16T11:14:55.269Z,11.27
2023-02-16T11:17:22.545Z,11.80
2023-02-16T11:19:54.076Z,10.88
2023-02-16T11:22:32.411Z,11.25
2023-02-16T11:25:17.480Z,11.50
2023-02-16T11:27:50.116Z,11.18
2023-02-16T11:30:22.562Z,11.27
2023-02-16T11:32:50.682Z,11.15
2023-02-16T11:35:17.811Z,11.18
2023-02-16T11:37:44.221Z,10.68
2023-02-16T11:40:22.316Z,10.27
2023-02-16T11:42:50.343Z,11.02
2023-02-16T11:45:22.864Z,11.18
2023-02-16T11:47:53.219Z,10.52
2023-02-16T11:50:21.427Z,11.30
2023-02-16T11:52:49.657Z,12.23
2023-02-16T11:55:33.296Z,11.15
2023-02-16T11:58:18.632Z,11.40
2023-02-16T12:00:47.991Z,10.93
2023-02-16T12:03:25.056Z,11.00
2023-02-16T12:06:10.130Z,11.18
2023-02-16T12:08:52.651Z,11.35
2023-02-16T12:11:19.518Z,11.88
2023-02-16T12:13:51.094Z,11.60
2023-02-16T12:16:38.229Z,11.93
2023-02-16T12:19:04.626Z,12.35
2023-02-16T12:21:45.471Z,12.55
2023-02-16T12:24:14.598Z,13.30
2023-02-16T12:26:52.008Z,13.13
2023-02-16T12:29:20.706Z,12.32
2023-02-16T12:31:59.115Z,13.07
2023-02-16T12:34:33.402Z,12.55
2023-02-16T12:37:22.811Z,12.77
2023-02-16T12:39:58.552Z,12.82
2023-02-16T12:42:25.152Z,12.90
2023-02-16T12:44:54.254Z,11.82
2023-02-16T12:47:29.879Z,12.82
2023-02-16T12:54:57.495Z,11.98
2023-02-16T12:57:26.092Z,12.70
2023-02-16T13:00:03.380Z,12.25
2023-02-16T13:02:40.596Z,13.88
2023-02-16T13:05:21.195Z,13.55
2023-02-16T13:07:50.132Z,13.27
2023-02-16T13:10:22.482Z,13.70
2023-02-16T13:12:55.233Z,13.85
2023-02-16T13:15:34.201Z,14.23
2023-02-16T13:18:18.742Z,13.65
2023-02-16T13:20:48.302Z,13.23
2023-02-16T13:23:28.709Z,14.38
2023-02-16T13:26:11.307Z,13.50
2023-02-16T13:28:41.270Z,13.88
2023-02-16T13:31:15.435Z,15.30
2023-02-16T13:33:48.630Z,14.75
2023-02-16T13:36:19.124Z,14.02
2023-02-16T13:39:04.852Z,14.70
2023-02-16T13:41:41.708Z,14.43
2023-02-16T13:44:12.208Z,14.68
2023-02-16T13:46:53.824Z,15.60
2023-02-16T13:49:29.063Z,15.70
2023-02-16T13:51:55.607Z,15.60
2023-02-16T13:54:26.897Z,14.05
2023-02-16T13:56:53.366Z,14.68
2023-02-16T13:59:19.744Z,14.77
2023-02-16T14:01:46.823Z,13.82
2023-02-16T14:04:22.235Z,14.65
2023-02-16T14:06:50.288Z,15.40
2023-02-16T14:09:16.641Z,14.25
2023-02-16T14:11:56.157Z,14.63
2023-02-16T14:14:27.019Z,15.18
2023-02-16T14:16:54.625Z,14.13
2023-02-16T14:19:25.957Z,13.70
2023-02-16T14:21:52.496Z,14.10
2023-02-16T14:24:38.609Z,13.75
2023-02-16T14:29:38.604Z,13.38
2023-02-16T14:32:16.444Z,13.45
2023-02-16T14:35:07.253Z,13.40
2023-02-16T14:37:39.371Z,12.90
2023-02-16T14:40:13.449Z,12.68
2023-02-16T14:42:44.279Z,12.65
2023-02-16T14:45:10.685Z,13.35
2023-02-16T14:47:44.520Z,13.20
2023-02-16T14:50:22.935Z,12.88
2023-02-16T14:52:58.392Z,13.52
2023-02-16T14:55:40.814Z,13.85
2023-02-16T14:58:13.393Z,13.38
2023-02-16T15:00:45.946Z,12.90
2023-02-16T15:03:16.659Z,12.10
2023-02-16T15:05:43.453Z,12.63
2023-02-16T15:08:17.513Z,12.63
2023-02-16T15:10:46.720Z,13.00
2023-02-16T15:13:30.125Z,12.27
2023-02-16T15:15:58.920Z,11.43
2023-02-16T15:18:27.785Z,12.43
2023-02-16T15:20:55.824Z,13.00
2023-02-16T15:23:23.721Z,12.40
2023-02-16T15:25:58.740Z,12.63
2023-02-16T15:28:26.824Z,12.27
2023-02-16T15:30:53.358Z,12.30
2023-02-16T15:33:25.934Z,10.93
2023-02-16T15:36:04.031Z,12.00
2023-02-16T15:38:32.000Z,12.60
2023-02-16T15:41:00.202Z,12.55
2023-02-16T15:43:30.978Z,12.10
2023-02-16T15:45:58.286Z,13.38
2023-02-16T15:48:25.002Z,12.52
2023-02-16T15:50:55.936Z,13.32
2023-02-16T15:53:23.825Z,12.60
2023-02-16T15:55:51.476Z,12.93
2023-02-16T15:58:18.084Z,13.18
2023-02-16T16:00:45.293Z,12.43
2023-02-16T16:03:17.004Z,12.60
2023-02-16T16:05:52.905Z,12.65
2023-02-16T16:08:22.659Z,12.52
2023-02-16T16:10:49.090Z,12.25
2023-02-16T16:13:19.049Z,11.95
2023-02-16T16:15:47.252Z,11.65
2023-02-16T16:18:32.334Z,11.40
2023-02-16T16:20:59.958Z,11.20
2023-02-16T16:23:27.066Z,10.48
2023-02-16T16:25:53.781Z,10.68
2023-02-16T16:28:26.484Z,10.68
2023-02-16T16:31:16.309Z,11.10
2023-02-16T16:33:52.148Z,10.60
2023-02-16T16:36:18.561Z,10.70
2023-02-16T16:38:45.838Z,10.45
2023-02-16T16:41:25.142Z,10.57
2023-02-16T16:43:57.647Z,10.93
2023-02-16T16:46:25.292Z,10.50
2023-02-16T16:48:53.631Z,10.10
2023-02-16T16:51:31.189Z,10.45
2023-02-16T16:54:01.664Z,10.25
2023-02-16T16:56:28.587Z,10.93
2023-02-16T16:58:59.737Z,10.82
2023-02-16T17:01:27.394Z,11.27
2023-02-16T17:03:53.955Z,11.00
2023-02-16T17:06:20.907Z,11.65
2023-02-16T17:08:47.344Z,11.00
2023-02-16T17:11:20.796Z,10.70
2023-02-16T17:13:47.353Z,11.35
2023-02-16T17:16:15.673Z,11.23
2023-02-16T17:18:42.072Z,11.70
2023-02-16T17:21:10.588Z,11.27
2023-02-16T17:23:45.145Z,12.50
2023-02-16T17:26:16.832Z,12.68
2023-02-16T17:28:43.217Z,12.30
2023-02-16T17:31:10.079Z,13.70
2023-02-16T17:33:36.427Z,12.95
2023-02-16T17:36:04.388Z,13.88
2023-02-16T17:38:30.903Z,13.25
2023-02-16T17:40:57.577Z,13.30
2023-02-16T17:43:24.764Z,14.13
2023-02-16T17:45:51.708Z,14.65
2023-02-16T17:48:27.469Z,14.10
2023-02-16T17:50:54.688Z,14.18
2023-02-16T17:53:22.168Z,14.68
2023-02-16T17:55:49.508Z,14.63
2023-02-16T17:58:16.155Z,15.20
2023-02-16T18:00:42.794Z,15.38
2023-02-16T18:03:09.358Z,15.20
2023-02-16T18:05:36.138Z,16.23
2023-02-16T18:08:03.202Z,16.10
2023-02-16T18:10:40.557Z,16.02
2023-02-16T18:13:07.604Z,16.70
2023-02-16T18:15:34.434Z,16.88
2023-02-16T18:18:00.991Z,17.25
2023-02-16T18:20:27.596Z,17.45
2023-02-16T18:22:53.971Z,16.52
2023-02-16T18:25:20.357Z,16.65
2023-02-16T18:27:46.761Z,16.83
2023-02-16T18:30:14.037Z,16.25
2023-02-16T18:32:41.914Z,17.25
2023-02-16T18:35:09.282Z,17.45
2023-02-16T18:37:35.632Z,16.98
2023-02-16T18:40:02.259Z,16.75
2023-02-16T18:42:28.571Z,15.80
2023-02-16T18:44:54.966Z,16.80
2023-02-16T18:47:21.432Z,17.10
2023-02-16T18:49:49.542Z,16.85
2023-02-16T18:52:16.418Z,16.55
2023-02-16T18:54:42.789Z,16.83
2023-02-16T18:57:11.107Z,16.45
2023-02-16T18:59:37.446Z,17.33
2023-02-16T19:02:03.955Z,17.17
2023-02-16T19:04:30.700Z,17.27
2023-02-16T19:06:58.351Z,17.10
2023-02-16T19:09:25.388Z,17.23
2023-02-16T19:11:51.787Z,17.33
2023-02-16T19:14:18.862Z,17.00
2023-02-16T19:16:45.701Z,16.23
2023-02-16T19:19:12.515Z,16.15
2023-02-16T19:21:40.133Z,16.90
2023-02-16T19:24:07.182Z,16.55
2023-02-16T19:26:33.788Z,17.00
2023-02-16T19:29:00.294Z,16.95
2023-02-16T19:31:31.190Z,17.10
2023-02-16T19:33:58.464Z,17.23
2023-02-16T19:36:26.123Z,17.15
2023-02-16T19:38:53.379Z,18.15
2023-02-16T19:41:25.737Z,17.38
2023-02-16T19:43:52.290Z,17.13
2023-02-16T19:46:18.807Z,16.98
2023-02-16T19:48:46.104Z,17.30
2023-02-16T19:51:12.660Z,18.15
2023-02-16T19:53:39.525Z,18.25
2023-02-16T19:56:11.278Z,19.65
2023-02-16T19:58:37.690Z,18.08
2023-02-16T20:01:08.034Z,18.40
2023-02-16T20:03:34.407Z,18.67
2023-02-16T20:06:00.855Z,18.33
2023-02-16T20:08:27.249Z,19.08
2023-02-16T20:10:53.682Z,19.02
2023-02-16T20:13:20.114Z,18.98
2023-02-16T20:15:46.519Z,18.33
2023-02-16T20:18:12.976Z,17.45
2023-02-16T20:20:39.345Z,17.60
2023-02-16T20:23:07.425Z,16.92
2023-02-16T20:25:33.782Z,17.42
2023-02-16T20:28:00.113Z,17.02
2023-02-16T20:30:27.486Z,16.05
2023-02-16T20:32:53.877Z,16.23
2023-02-16T20:35:20.364Z,16.77
2023-02-16T20:37:46.750Z,16.90
2023-02-16T20:40:13.289Z,15.95
2023-02-16T20:42:39.721Z,16.27
2023-02-16T20:45:06.568Z,16.02
2023-02-16T20:47:32.938Z,15.93
2023-02-16T20:49:59.325Z,15.65
2023-02-16T20:52:25.718Z,15.30
2023-02-16T20:54:52.114Z,14.85
2023-02-16T20:57:26.688Z,15.52
2023-02-16T20:59:53.682Z,14.73
2023-02-16T21:02:20.136Z,14.57
2023-02-16T21:04:47.451Z,14.52
2023-02-16T21:07:13.808Z,15.10
2023-02-16T21:09:40.139Z,14.57
2023-02-16T21:12:06.559Z,15.27
2023-02-16T21:14:32.935Z,14.52
2023-02-16T21:16:59.355Z,14.27
2023-02-16T21:19:25.766Z,14.38
2023-02-16T21:21:52.297Z,14.05
2023-02-16T21:24:18.988Z,14.68
2023-02-16T21:26:45.395Z,13.40
2023-02-16T21:29:11.839Z,13.90
2023-02-16T21:31:38.492Z,13.80
2023-02-16T21:34:04.907Z,13.98
2023-02-16T21:36:31.362Z,13.23
2023-02-16T21:38:57.681Z,13.45
2023-02-16T21:41:25.716Z,13.75
2023-02-16T21:43:53.245Z,13.57
2023-02-16T21:46:19.734Z,14.07
2023-02-16T21:48:48.943Z,14.13
2023-02-16T21:51:16.624Z,13.52
2023-02-16T21:53:43.655Z,12.90
2023-02-16T21:56:19.846Z,12.35
2023-02-16T21:58:46.827Z,12.07
2023-02-16T22:01:13.777Z,12.00
2023-02-16T22:03:40.477Z,11.93
2023-02-16T22:06:07.682Z,11.73
2023-02-16T22:08:34.949Z,12.20
2023-02-16T22:11:08.273Z,11.18
2023-02-16T22:13:34.894Z,11.65
2023-02-16T22:16:01.407Z,11.52
2023-02-16T22:18:27.802Z,11.57
2023-02-16T22:20:54.256Z,11.40
2023-02-16T22:23:20.667Z,11.52
2023-02-16T22:25:47.036Z,11.73
2023-02-16T22:28:13.395Z,11.38
2023-02-16T22:30:39.776Z,11.38
2023-02-16T22:33:06.105Z,12.32
2023-02-16T22:35:33.163Z,11.30
2023-02-16T22:37:59.577Z,11.57
2023-02-16T22:40:25.888Z,10.82
2023-02-16T22:42:52.224Z,10.98
2023-02-16T22:45:18.626Z,11.27
2023-02-16T22:47:44.915Z,11.55
2023-02-16T22:50:11.483Z,11.30
2023-02-16T22:52:38.181Z,11.98
2023-02-16T22:55:05.363Z,11.18
2023-02-16T22:57:35.420Z,11.18
2023-02-16T23:00:02.014Z,10.73
2023-02-16T23:02:28.641Z,11.43
2023-02-16T23:04:56.072Z,10.77
2023-02-16T23:07:22.440Z,11.98
2023-02-16T23:09:48.827Z,11.52
2023-02-16T23:12:16.385Z,12.45
2023-02-16T23:14:42.762Z,10.60
2023-02-16T23:17:09.121Z,11.10
2023-02-16T23:19:35.573Z,11.20
2023-02-16T23:22:02.021Z,11.32
2023-02-16T23:24:28.411Z,10.68
2023-02-16T23:26:55.112Z,11.10
2023-02-16T23:29:21.543Z,11.20
2023-02-16T23:31:48.984Z,11.20
2023-02-16T23:34:15.885Z,11.23
2023-02-16T23:36:42.566Z,11.15
2023-02-16T23:39:10.602Z,11.02
2023-02-16T23:41:37.304Z,10.85
2023-02-16T23:44:04.421Z,11.52
2023-02-16T23:46:31.158Z,11.80
2023-02-16T23:48:57.737Z,11.07
2023-02-16T23:51:24.352Z,11.88
2023-02-16T23:53:50.764Z,11.57
2023-02-16T23:56:27.330Z,12.20
2023-02-16T23:58:56.723Z,12.50
